sensor_id;sensor_type;location;lat;lon;timestamp;P1;durP1;ratioP1;P2;durP2;ratioP2
40807;SDS011;26523;52.504;13.498;2022-12-05T00:03:37;72.88;;;18.33;;
40807;SDS011;26523;52.504;13.498;2022-12-05T00:06:02;72.50;;;19.23;;
40807;SDS011;26523;52.504;13.498;2022-12-05T00:08:28;74.70;;;17.60;;
40807;SDS011;26523;52.504;13.498;2022-12-05T00:10:54;88.15;;;21.52;;
40807;SDS011;26523;52.504;13.498;2022-12-05T00:13:20;70.97;;;19.27;;
40807;SDS011;26523;52.504;13.498;2022-12-05T00:15:45;72.35;;;19.65;;
40807;SDS011;26523;52.504;13.498;2022-12-05T00:18:11;61.10;;;16.63;;
40807;SDS011;26523;52.504;13.498;2022-12-05T00:20:43;73.78;;;18.52;;
40807;SDS011;26523;52.504;13.498;2022-12-05T00:23:12;70.45;;;17.58;;
40807;SDS011;26523;52.504;13.498;2022-12-05T00:25:38;91.72;;;18.73;;
40807;SDS011;26523;52.504;13.498;2022-12-05T00:28:04;61.63;;;18.75;;
40807;SDS011;26523;52.504;13.498;2022-12-05T00:30:29;66.63;;;17.90;;
40807;SDS011;26523;52.504;13.498;2022-12-05T00:32:56;68.15;;;19.10;;
40807;SDS011;26523;52.504;13.498;2022-12-05T00:35:21;62.83;;;16.25;;
40807;SDS011;26523;52.504;13.498;2022-12-05T00:37:47;79.05;;;18.05;;
40807;SDS011;26523;52.504;13.498;2022-12-05T00:40:13;88.35;;;20.00;;
40807;SDS011;26523;52.504;13.498;2022-12-05T00:42:38;74.82;;;19.52;;
40807;SDS011;26523;52.504;13.498;2022-12-05T00:45:04;67.97;;;19.60;;
40807;SDS011;26523;52.504;13.498;2022-12-05T00:47:33;73.35;;;19.35;;
40807;SDS011;26523;52.504;13.498;2022-12-05T00:52:31;65.15;;;15.50;;
40807;SDS011;26523;52.504;13.498;2022-12-05T00:54:57;78.43;;;21.05;;
40807;SDS011;26523;52.504;13.498;2022-12-05T00:57:22;84.82;;;19.90;;
40807;SDS011;26523;52.504;13.498;2022-12-05T00:59:48;50.45;;;15.73;;
40807;SDS011;26523;52.504;13.498;2022-12-05T01:02:14;86.00;;;21.02;;
40807;SDS011;26523;52.504;13.498;2022-12-05T01:04:40;59.67;;;17.52;;
40807;SDS011;26523;52.504;13.498;2022-12-05T01:07:05;58.10;;;14.13;;
40807;SDS011;26523;52.504;13.498;2022-12-05T01:09:31;77.38;;;19.50;;
40807;SDS011;26523;52.504;13.498;2022-12-05T01:11:57;69.82;;;19.45;;
40807;SDS011;26523;52.504;13.498;2022-12-05T01:14:23;76.88;;;20.52;;
40807;SDS011;26523;52.504;13.498;2022-12-05T01:16:51;55.63;;;17.70;;
40807;SDS011;26523;52.504;13.498;2022-12-05T01:19:20;77.47;;;18.95;;
40807;SDS011;26523;52.504;13.498;2022-12-05T01:21:48;75.50;;;19.55;;
40807;SDS011;26523;52.504;13.498;2022-12-05T01:24:15;68.78;;;17.45;;
40807;SDS011;26523;52.504;13.498;2022-12-05T01:26:41;68.22;;;17.25;;
40807;SDS011;26523;52.504;13.498;2022-12-05T01:29:08;67.38;;;19.02;;
40807;SDS011;26523;52.504;13.498;2022-12-05T01:31:34;85.60;;;22.38;;
40807;SDS011;26523;52.504;13.498;2022-12-05T01:34:03;69.20;;;17.40;;
40807;SDS011;26523;52.504;13.498;2022-12-05T01:36:30;65.20;;;19.08;;
40807;SDS011;26523;52.504;13.498;2022-12-05T01:38:56;74.60;;;17.02;;
40807;SDS011;26523;52.504;13.498;2022-12-05T01:41:27;82.72;;;20.33;;
40807;SDS011;26523;52.504;13.498;2022-12-05T01:44:00;57.92;;;17.10;;
40807;SDS011;26523;52.504;13.498;2022-12-05T01:46:29;75.85;;;17.85;;
40807;SDS011;26523;52.504;13.498;2022-12-05T01:49:06;78.35;;;19.00;;
40807;SDS011;26523;52.504;13.498;2022-12-05T01:51:33;60.47;;;16.90;;
40807;SDS011;26523;52.504;13.498;2022-12-05T01:54:02;59.00;;;16.35;;
40807;SDS011;26523;52.504;13.498;2022-12-05T01:56:30;70.72;;;18.10;;
40807;SDS011;26523;52.504;13.498;2022-12-05T01:58:57;68.65;;;18.27;;
40807;SDS011;26523;52.504;13.498;2022-12-05T02:01:24;62.50;;;18.35;;
40807;SDS011;26523;52.504;13.498;2022-12-05T02:03:50;74.22;;;19.20;;
40807;SDS011;26523;52.504;13.498;2022-12-05T02:06:18;86.03;;;22.17;;
40807;SDS011;26523;52.504;13.498;2022-12-05T02:08:44;66.47;;;19.38;;
40807;SDS011;26523;52.504;13.498;2022-12-05T02:11:11;79.05;;;19.38;;
40807;SDS011;26523;52.504;13.498;2022-12-05T02:22:38;71.93;;;17.67;;
40807;SDS011;26523;52.504;13.498;2022-12-05T02:30:39;63.42;;;16.73;;
40807;SDS011;26523;52.504;13.498;2022-12-05T02:43:25;67.35;;;17.75;;
40807;SDS011;26523;52.504;13.498;2022-12-05T02:45:57;73.25;;;19.73;;
40807;SDS011;26523;52.504;13.498;2022-12-05T02:48:27;68.22;;;16.73;;
40807;SDS011;26523;52.504;13.498;2022-12-05T02:50:53;58.00;;;16.80;;
40807;SDS011;26523;52.504;13.498;2022-12-05T02:53:22;69.82;;;17.77;;
40807;SDS011;26523;52.504;13.498;2022-12-05T02:55:50;68.70;;;18.20;;
40807;SDS011;26523;52.504;13.498;2022-12-05T02:58:18;72.60;;;19.25;;
40807;SDS011;26523;52.504;13.498;2022-12-05T03:00:49;67.10;;;18.05;;
40807;SDS011;26523;52.504;13.498;2022-12-05T03:03:18;59.30;;;19.30;;
40807;SDS011;26523;52.504;13.498;2022-12-05T03:05:48;64.35;;;15.25;;
40807;SDS011;26523;52.504;13.498;2022-12-05T03:08:41;49.72;;;16.27;;
40807;SDS011;26523;52.504;13.498;2022-12-05T03:11:14;68.15;;;18.55;;
40807;SDS011;26523;52.504;13.498;2022-12-05T03:13:42;48.15;;;15.77;;
40807;SDS011;26523;52.504;13.498;2022-12-05T03:16:32;55.38;;;16.67;;
40807;SDS011;26523;52.504;13.498;2022-12-05T03:19:08;70.97;;;16.52;;
40807;SDS011;26523;52.504;13.498;2022-12-05T03:21:39;59.63;;;16.75;;
40807;SDS011;26523;52.504;13.498;2022-12-05T03:24:14;48.47;;;14.68;;
40807;SDS011;26523;52.504;13.498;2022-12-05T03:26:56;55.88;;;14.80;;
40807;SDS011;26523;52.504;13.498;2022-12-05T03:29:43;71.10;;;17.25;;
40807;SDS011;26523;52.504;13.498;2022-12-05T03:34:50;48.72;;;15.25;;
40807;SDS011;26523;52.504;13.498;2022-12-05T03:40:20;38.05;;;12.40;;
40807;SDS011;26523;52.504;13.498;2022-12-05T03:43:02;61.92;;;15.90;;
40807;SDS011;26523;52.504;13.498;2022-12-05T03:45:48;59.28;;;13.23;;
40807;SDS011;26523;52.504;13.498;2022-12-05T03:48:21;47.80;;;13.48;;
40807;SDS011;26523;52.504;13.498;2022-12-05T03:51:10;56.10;;;13.35;;
40807;SDS011;26523;52.504;13.498;2022-12-05T03:53:41;56.30;;;14.55;;
40807;SDS011;26523;52.504;13.498;2022-12-05T03:56:13;54.53;;;16.98;;
40807;SDS011;26523;52.504;13.498;2022-12-05T03:58:48;41.55;;;12.18;;
40807;SDS011;26523;52.504;13.498;2022-12-05T04:01:21;50.20;;;13.68;;
40807;SDS011;26523;52.504;13.498;2022-12-05T04:03:51;56.08;;;15.10;;
40807;SDS011;26523;52.504;13.498;2022-12-05T04:06:22;52.97;;;15.80;;
40807;SDS011;26523;52.504;13.498;2022-12-05T04:08:53;49.72;;;13.32;;
40807;SDS011;26523;52.504;13.498;2022-12-05T04:11:23;71.20;;;15.32;;
40807;SDS011;26523;52.504;13.498;2022-12-05T04:13:56;46.65;;;14.20;;
40807;SDS011;26523;52.504;13.498;2022-12-05T04:16:29;49.53;;;16.77;;
40807;SDS011;26523;52.504;13.498;2022-12-05T04:22:31;60.50;;;15.00;;
40807;SDS011;26523;52.504;13.498;2022-12-05T04:24:57;59.17;;;15.23;;
40807;SDS011;26523;52.504;13.498;2022-12-05T04:30:18;44.55;;;12.48;;
40807;SDS011;26523;52.504;13.498;2022-12-05T04:35:34;38.47;;;13.45;;
40807;SDS011;26523;52.504;13.498;2022-12-05T04:38:11;43.95;;;13.52;;
40807;SDS011;26523;52.504;13.498;2022-12-05T04:40:47;52.90;;;15.10;;
40807;SDS011;26523;52.504;13.498;2022-12-05T04:43:19;55.63;;;13.75;;
40807;SDS011;26523;52.504;13.498;2022-12-05T04:45:47;36.72;;;12.30;;
40807;SDS011;26523;52.504;13.498;2022-12-05T04:48:16;48.72;;;14.75;;
40807;SDS011;26523;52.504;13.498;2022-12-05T04:50:44;41.72;;;13.68;;
40807;SDS011;26523;52.504;13.498;2022-12-05T04:53:12;37.22;;;13.05;;
40807;SDS011;26523;52.504;13.498;2022-12-05T04:55:41;39.15;;;12.63;;
40807;SDS011;26523;52.504;13.498;2022-12-05T04:58:14;35.33;;;11.63;;
40807;SDS011;26523;52.504;13.498;2022-12-05T05:00:45;42.85;;;12.32;;
40807;SDS011;26523;52.504;13.498;2022-12-05T05:03:44;37.33;;;11.30;;
40807;SDS011;26523;52.504;13.498;2022-12-05T05:06:19;44.03;;;10.50;;
40807;SDS011;26523;52.504;13.498;2022-12-05T05:08:46;46.90;;;12.80;;
40807;SDS011;26523;52.504;13.498;2022-12-05T05:11:20;46.83;;;12.60;;
40807;SDS011;26523;52.504;13.498;2022-12-05T05:13:51;41.83;;;12.07;;
40807;SDS011;26523;52.504;13.498;2022-12-05T05:16:22;33.58;;;11.55;;
40807;SDS011;26523;52.504;13.498;2022-12-05T05:18:53;42.28;;;13.88;;
40807;SDS011;26523;52.504;13.498;2022-12-05T05:21:30;34.85;;;10.35;;
40807;SDS011;26523;52.504;13.498;2022-12-05T05:23:57;35.97;;;11.05;;
40807;SDS011;26523;52.504;13.498;2022-12-05T05:26:24;41.63;;;12.60;;
40807;SDS011;26523;52.504;13.498;2022-12-05T05:28:50;38.28;;;12.23;;
40807;SDS011;26523;52.504;13.498;2022-12-05T05:31:17;24.63;;;10.45;;
40807;SDS011;26523;52.504;13.498;2022-12-05T05:33:47;36.08;;;12.00;;
40807;SDS011;26523;52.504;13.498;2022-12-05T05:36:13;27.00;;;9.07;;
40807;SDS011;26523;52.504;13.498;2022-12-05T05:38:41;39.50;;;12.02;;
40807;SDS011;26523;52.504;13.498;2022-12-05T05:41:13;40.72;;;11.63;;
40807;SDS011;26523;52.504;13.498;2022-12-05T05:43:40;30.05;;;9.20;;
40807;SDS011;26523;52.504;13.498;2022-12-05T05:46:07;30.63;;;10.50;;
40807;SDS011;26523;52.504;13.498;2022-12-05T05:48:33;34.20;;;8.93;;
40807;SDS011;26523;52.504;13.498;2022-12-05T05:51:00;28.83;;;10.15;;
40807;SDS011;26523;52.504;13.498;2022-12-05T05:53:27;29.15;;;9.68;;
40807;SDS011;26523;52.504;13.498;2022-12-05T05:55:52;39.22;;;11.52;;
40807;SDS011;26523;52.504;13.498;2022-12-05T05:58:18;30.10;;;10.73;;
40807;SDS011;26523;52.504;13.498;2022-12-05T06:00:44;32.10;;;9.02;;
40807;SDS011;26523;52.504;13.498;2022-12-05T06:03:09;31.45;;;10.07;;
40807;SDS011;26523;52.504;13.498;2022-12-05T06:05:35;28.23;;;9.00;;
40807;SDS011;26523;52.504;13.498;2022-12-05T06:08:01;28.05;;;9.50;;
40807;SDS011;26523;52.504;13.498;2022-12-05T06:10:28;31.98;;;7.97;;
40807;SDS011;26523;52.504;13.498;2022-12-05T06:12:54;29.40;;;8.75;;
40807;SDS011;26523;52.504;13.498;2022-12-05T06:15:21;23.85;;;8.90;;
40807;SDS011;26523;52.504;13.498;2022-12-05T06:17:47;28.35;;;9.05;;
40807;SDS011;26523;52.504;13.498;2022-12-05T06:20:13;19.95;;;7.85;;
40807;SDS011;26523;52.504;13.498;2022-12-05T06:22:38;33.25;;;9.23;;
40807;SDS011;26523;52.504;13.498;2022-12-05T06:25:04;24.02;;;8.45;;
40807;SDS011;26523;52.504;13.498;2022-12-05T06:27:31;22.05;;;7.68;;
40807;SDS011;26523;52.504;13.498;2022-12-05T06:29:57;29.52;;;9.02;;
40807;SDS011;26523;52.504;13.498;2022-12-05T06:32:23;31.15;;;9.77;;
40807;SDS011;26523;52.504;13.498;2022-12-05T06:34:49;23.60;;;8.48;;
40807;SDS011;26523;52.504;13.498;2022-12-05T06:37:15;31.77;;;9.85;;
40807;SDS011;26523;52.504;13.498;2022-12-05T06:39:41;25.67;;;9.63;;
40807;SDS011;26523;52.504;13.498;2022-12-05T06:42:06;25.23;;;10.02;;
40807;SDS011;26523;52.504;13.498;2022-12-05T06:44:32;24.58;;;10.10;;
40807;SDS011;26523;52.504;13.498;2022-12-05T06:46:58;27.83;;;9.38;;
40807;SDS011;26523;52.504;13.498;2022-12-05T06:49:23;24.73;;;8.75;;
40807;SDS011;26523;52.504;13.498;2022-12-05T06:51:51;24.65;;;9.82;;
40807;SDS011;26523;52.504;13.498;2022-12-05T06:54:18;25.48;;;7.93;;
40807;SDS011;26523;52.504;13.498;2022-12-05T06:56:46;30.00;;;9.10;;
40807;SDS011;26523;52.504;13.498;2022-12-05T06:59:12;26.52;;;9.10;;
40807;SDS011;26523;52.504;13.498;2022-12-05T07:01:39;21.23;;;6.90;;
40807;SDS011;26523;52.504;13.498;2022-12-05T07:04:16;22.83;;;7.95;;
40807;SDS011;26523;52.504;13.498;2022-12-05T07:06:44;20.88;;;8.02;;
40807;SDS011;26523;52.504;13.498;2022-12-05T07:09:11;34.17;;;8.75;;
40807;SDS011;26523;52.504;13.498;2022-12-05T07:11:37;25.52;;;8.38;;
40807;SDS011;26523;52.504;13.498;2022-12-05T07:14:10;23.52;;;8.95;;
40807;SDS011;26523;52.504;13.498;2022-12-05T07:16:36;25.75;;;7.93;;
40807;SDS011;26523;52.504;13.498;2022-12-05T07:19:02;21.08;;;8.90;;
40807;SDS011;26523;52.504;13.498;2022-12-05T07:21:27;22.52;;;9.13;;
40807;SDS011;26523;52.504;13.498;2022-12-05T07:23:53;26.98;;;9.07;;
40807;SDS011;26523;52.504;13.498;2022-12-05T07:26:20;30.77;;;9.60;;
40807;SDS011;26523;52.504;13.498;2022-12-05T07:28:47;21.33;;;8.80;;
40807;SDS011;26523;52.504;13.498;2022-12-05T07:31:15;24.23;;;9.35;;
40807;SDS011;26523;52.504;13.498;2022-12-05T07:33:42;20.48;;;8.48;;
40807;SDS011;26523;52.504;13.498;2022-12-05T07:36:10;35.05;;;7.93;;
40807;SDS011;26523;52.504;13.498;2022-12-05T07:38:37;25.02;;;9.77;;
40807;SDS011;26523;52.504;13.498;2022-12-05T07:41:04;23.75;;;9.43;;
40807;SDS011;26523;52.504;13.498;2022-12-05T07:43:31;23.98;;;8.23;;
40807;SDS011;26523;52.504;13.498;2022-12-05T07:46:00;26.00;;;8.70;;
40807;SDS011;26523;52.504;13.498;2022-12-05T07:48:26;29.60;;;9.70;;
40807;SDS011;26523;52.504;13.498;2022-12-05T07:50:52;36.08;;;8.00;;
40807;SDS011;26523;52.504;13.498;2022-12-05T07:53:18;30.73;;;9.95;;
40807;SDS011;26523;52.504;13.498;2022-12-05T07:55:43;27.27;;;8.75;;
40807;SDS011;26523;52.504;13.498;2022-12-05T07:58:09;20.02;;;7.30;;
40807;SDS011;26523;52.504;13.498;2022-12-05T08:00:35;20.10;;;7.53;;
40807;SDS011;26523;52.504;13.498;2022-12-05T08:03:01;22.20;;;8.05;;
40807;SDS011;26523;52.504;13.498;2022-12-05T08:05:27;20.33;;;7.93;;
40807;SDS011;26523;52.504;13.498;2022-12-05T08:07:53;24.55;;;9.25;;
40807;SDS011;26523;52.504;13.498;2022-12-05T08:10:19;24.17;;;7.75;;
40807;SDS011;26523;52.504;13.498;2022-12-05T08:12:44;26.95;;;8.05;;
40807;SDS011;26523;52.504;13.498;2022-12-05T08:15:10;25.52;;;8.70;;
40807;SDS011;26523;52.504;13.498;2022-12-05T08:17:36;28.10;;;8.65;;
40807;SDS011;26523;52.504;13.498;2022-12-05T08:20:02;26.33;;;9.38;;
40807;SDS011;26523;52.504;13.498;2022-12-05T08:22:28;22.92;;;7.70;;
40807;SDS011;26523;52.504;13.498;2022-12-05T08:24:53;20.42;;;8.07;;
40807;SDS011;26523;52.504;13.498;2022-12-05T08:27:19;32.63;;;7.97;;
40807;SDS011;26523;52.504;13.498;2022-12-05T08:29:45;28.20;;;9.32;;
40807;SDS011;26523;52.504;13.498;2022-12-05T08:32:10;22.38;;;7.60;;
40807;SDS011;26523;52.504;13.498;2022-12-05T08:34:36;34.95;;;9.73;;
40807;SDS011;26523;52.504;13.498;2022-12-05T08:37:01;26.23;;;9.13;;
40807;SDS011;26523;52.504;13.498;2022-12-05T08:39:27;24.75;;;8.20;;
40807;SDS011;26523;52.504;13.498;2022-12-05T08:41:53;20.90;;;8.55;;
40807;SDS011;26523;52.504;13.498;2022-12-05T08:44:18;21.00;;;8.27;;
40807;SDS011;26523;52.504;13.498;2022-12-05T08:46:45;26.40;;;8.65;;
40807;SDS011;26523;52.504;13.498;2022-12-05T08:49:13;28.80;;;8.52;;
40807;SDS011;26523;52.504;13.498;2022-12-05T08:51:39;22.45;;;8.38;;
40807;SDS011;26523;52.504;13.498;2022-12-05T08:54:06;25.98;;;9.27;;
40807;SDS011;26523;52.504;13.498;2022-12-05T08:56:32;28.17;;;9.35;;
40807;SDS011;26523;52.504;13.498;2022-12-05T08:58:58;19.55;;;8.10;;
40807;SDS011;26523;52.504;13.498;2022-12-05T09:01:26;20.23;;;8.32;;
40807;SDS011;26523;52.504;13.498;2022-12-05T09:03:55;19.30;;;7.32;;
40807;SDS011;26523;52.504;13.498;2022-12-05T09:06:24;23.95;;;8.45;;
40807;SDS011;26523;52.504;13.498;2022-12-05T09:08:54;21.55;;;7.30;;
40807;SDS011;26523;52.504;13.498;2022-12-05T09:11:22;17.92;;;7.53;;
40807;SDS011;26523;52.504;13.498;2022-12-05T09:13:50;22.55;;;7.55;;
40807;SDS011;26523;52.504;13.498;2022-12-05T09:16:17;19.90;;;7.18;;
40807;SDS011;26523;52.504;13.498;2022-12-05T09:18:45;18.17;;;7.55;;
40807;SDS011;26523;52.504;13.498;2022-12-05T09:21:12;20.73;;;6.90;;
40807;SDS011;26523;52.504;13.498;2022-12-05T09:23:39;20.45;;;7.95;;
40807;SDS011;26523;52.504;13.498;2022-12-05T09:26:06;20.00;;;7.43;;
40807;SDS011;26523;52.504;13.498;2022-12-05T09:28:33;13.05;;;7.10;;
40807;SDS011;26523;52.504;13.498;2022-12-05T09:31:00;20.52;;;8.00;;
40807;SDS011;26523;52.504;13.498;2022-12-05T09:33:28;21.02;;;7.50;;
40807;SDS011;26523;52.504;13.498;2022-12-05T09:35:55;17.42;;;6.63;;
40807;SDS011;26523;52.504;13.498;2022-12-05T09:38:21;14.32;;;6.15;;
40807;SDS011;26523;52.504;13.498;2022-12-05T09:40:53;17.55;;;7.43;;
40807;SDS011;26523;52.504;13.498;2022-12-05T09:43:36;17.50;;;6.13;;
40807;SDS011;26523;52.504;13.498;2022-12-05T09:46:12;23.02;;;7.13;;
40807;SDS011;26523;52.504;13.498;2022-12-05T09:48:52;20.33;;;7.85;;
40807;SDS011;26523;52.504;13.498;2022-12-05T09:51:20;16.35;;;7.45;;
40807;SDS011;26523;52.504;13.498;2022-12-05T09:53:46;19.77;;;7.90;;
40807;SDS011;26523;52.504;13.498;2022-12-05T09:58:52;22.08;;;7.10;;
40807;SDS011;26523;52.504;13.498;2022-12-05T10:13:07;18.98;;;6.60;;
40807;SDS011;26523;52.504;13.498;2022-12-05T10:15:47;14.00;;;6.07;;
40807;SDS011;26523;52.504;13.498;2022-12-05T10:20:56;15.52;;;5.75;;
40807;SDS011;26523;52.504;13.498;2022-12-05T10:23:37;16.20;;;6.65;;
40807;SDS011;26523;52.504;13.498;2022-12-05T10:26:24;17.95;;;6.45;;
40807;SDS011;26523;52.504;13.498;2022-12-05T10:31:40;16.27;;;6.68;;
40807;SDS011;26523;52.504;13.498;2022-12-05T10:34:14;21.98;;;6.90;;
40807;SDS011;26523;52.504;13.498;2022-12-05T10:37:29;15.93;;;6.32;;
40807;SDS011;26523;52.504;13.498;2022-12-05T10:39:42;15.60;;;6.35;;
40807;SDS011;26523;52.504;13.498;2022-12-05T10:42:15;17.17;;;6.95;;
40807;SDS011;26523;52.504;13.498;2022-12-05T10:44:57;21.58;;;6.90;;
40807;SDS011;26523;52.504;13.498;2022-12-05T10:47:27;16.85;;;6.82;;
40807;SDS011;26523;52.504;13.498;2022-12-05T10:49:54;22.10;;;6.80;;
40807;SDS011;26523;52.504;13.498;2022-12-05T10:52:23;18.13;;;7.45;;
40807;SDS011;26523;52.504;13.498;2022-12-05T10:55:00;18.60;;;6.60;;
40807;SDS011;26523;52.504;13.498;2022-12-05T10:57:28;16.65;;;6.45;;
40807;SDS011;26523;52.504;13.498;2022-12-05T10:59:54;16.90;;;6.13;;
40807;SDS011;26523;52.504;13.498;2022-12-05T11:02:25;19.65;;;8.40;;
40807;SDS011;26523;52.504;13.498;2022-12-05T11:04:56;19.98;;;7.88;;
40807;SDS011;26523;52.504;13.498;2022-12-05T11:07:33;17.83;;;6.22;;
40807;SDS011;26523;52.504;13.498;2022-12-05T11:10:18;18.23;;;7.05;;
40807;SDS011;26523;52.504;13.498;2022-12-05T11:12:55;16.80;;;6.60;;
40807;SDS011;26523;52.504;13.498;2022-12-05T11:15:23;16.17;;;7.00;;
40807;SDS011;26523;52.504;13.498;2022-12-05T11:17:54;20.88;;;7.57;;
40807;SDS011;26523;52.504;13.498;2022-12-05T11:22:51;14.25;;;7.03;;
40807;SDS011;26523;52.504;13.498;2022-12-05T11:25:34;15.80;;;7.10;;
40807;SDS011;26523;52.504;13.498;2022-12-05T11:33:31;23.60;;;7.45;;
40807;SDS011;26523;52.504;13.498;2022-12-05T11:36:07;18.60;;;7.43;;
40807;SDS011;26523;52.504;13.498;2022-12-05T11:38:41;15.77;;;6.72;;
40807;SDS011;26523;52.504;13.498;2022-12-05T11:49:14;23.42;;;8.73;;
40807;SDS011;26523;52.504;13.498;2022-12-05T11:57:45;20.98;;;7.60;;
40807;SDS011;26523;52.504;13.498;2022-12-05T12:00:36;27.08;;;8.57;;
40807;SDS011;26523;52.504;13.498;2022-12-05T12:05:58;17.13;;;7.55;;
40807;SDS011;26523;52.504;13.498;2022-12-05T12:08:28;17.35;;;7.65;;
40807;SDS011;26523;52.504;13.498;2022-12-05T12:13:34;17.73;;;7.55;;
40807;SDS011;26523;52.504;13.498;2022-12-05T12:17:25;22.63;;;8.15;;
40807;SDS011;26523;52.504;13.498;2022-12-05T12:25:19;26.30;;;8.13;;
40807;SDS011;26523;52.504;13.498;2022-12-05T12:30:54;21.98;;;8.57;;
40807;SDS011;26523;52.504;13.498;2022-12-05T12:33:35;20.85;;;7.70;;
40807;SDS011;26523;52.504;13.498;2022-12-05T12:44:49;21.27;;;7.18;;
40807;SDS011;26523;52.504;13.498;2022-12-05T12:50:26;21.33;;;8.27;;
40807;SDS011;26523;52.504;13.498;2022-12-05T12:53:01;27.42;;;9.50;;
40807;SDS011;26523;52.504;13.498;2022-12-05T13:03:50;20.92;;;8.13;;
40807;SDS011;26523;52.504;13.498;2022-12-05T13:09:10;25.23;;;9.73;;
40807;SDS011;26523;52.504;13.498;2022-12-05T13:11:47;23.13;;;9.23;;
40807;SDS011;26523;52.504;13.498;2022-12-05T13:14:15;19.60;;;9.23;;
40807;SDS011;26523;52.504;13.498;2022-12-05T13:16:48;27.92;;;9.90;;
40807;SDS011;26523;52.504;13.498;2022-12-05T13:19:27;22.95;;;7.72;;
40807;SDS011;26523;52.504;13.498;2022-12-05T13:22:01;32.92;;;10.05;;
40807;SDS011;26523;52.504;13.498;2022-12-05T13:24:28;37.97;;;10.00;;
40807;SDS011;26523;52.504;13.498;2022-12-05T13:26:56;25.70;;;9.85;;
40807;SDS011;26523;52.504;13.498;2022-12-05T13:29:32;30.02;;;10.20;;
40807;SDS011;26523;52.504;13.498;2022-12-05T13:34:54;24.55;;;9.20;;
40807;SDS011;26523;52.504;13.498;2022-12-05T13:37:26;31.63;;;8.93;;
40807;SDS011;26523;52.504;13.498;2022-12-05T13:40:22;35.65;;;10.45;;
40807;SDS011;26523;52.504;13.498;2022-12-05T13:43:12;30.55;;;10.63;;
40807;SDS011;26523;52.504;13.498;2022-12-05T13:45:41;28.85;;;10.15;;
40807;SDS011;26523;52.504;13.498;2022-12-05T13:48:19;30.52;;;9.85;;
40807;SDS011;26523;52.504;13.498;2022-12-05T13:50:49;33.13;;;10.70;;
40807;SDS011;26523;52.504;13.498;2022-12-05T13:53:23;32.13;;;9.93;;
40807;SDS011;26523;52.504;13.498;2022-12-05T14:01:29;38.20;;;9.85;;
40807;SDS011;26523;52.504;13.498;2022-12-05T14:17:19;27.65;;;10.48;;
40807;SDS011;26523;52.504;13.498;2022-12-05T14:19:50;38.47;;;11.23;;
40807;SDS011;26523;52.504;13.498;2022-12-05T14:22:39;37.55;;;12.02;;
40807;SDS011;26523;52.504;13.498;2022-12-05T14:25:11;35.45;;;11.20;;
40807;SDS011;26523;52.504;13.498;2022-12-05T14:28:20;46.13;;;12.07;;
40807;SDS011;26523;52.504;13.498;2022-12-05T14:34:12;37.88;;;11.45;;
40807;SDS011;26523;52.504;13.498;2022-12-05T14:36:52;28.35;;;10.18;;
40807;SDS011;26523;52.504;13.498;2022-12-05T14:44:52;40.97;;;11.77;;
40807;SDS011;26523;52.504;13.498;2022-12-05T14:47:25;43.00;;;12.70;;
40807;SDS011;26523;52.504;13.498;2022-12-05T14:55:40;40.92;;;10.98;;
40807;SDS011;26523;52.504;13.498;2022-12-05T14:58:15;29.25;;;11.30;;
40807;SDS011;26523;52.504;13.498;2022-12-05T15:00:45;35.83;;;11.85;;
40807;SDS011;26523;52.504;13.498;2022-12-05T15:03:21;42.00;;;13.27;;
40807;SDS011;26523;52.504;13.498;2022-12-05T15:05:51;36.10;;;13.27;;
40807;SDS011;26523;52.504;13.498;2022-12-05T15:08:17;36.20;;;11.60;;
40807;SDS011;26523;52.504;13.498;2022-12-05T15:10:44;49.95;;;13.30;;
40807;SDS011;26523;52.504;13.498;2022-12-05T15:13:15;43.05;;;11.18;;
40807;SDS011;26523;52.504;13.498;2022-12-05T15:15:45;39.70;;;13.30;;
40807;SDS011;26523;52.504;13.498;2022-12-05T15:18:50;45.92;;;13.52;;
40807;SDS011;26523;52.504;13.498;2022-12-05T15:26:22;38.53;;;11.60;;
40807;SDS011;26523;52.504;13.498;2022-12-05T15:29:04;32.80;;;10.60;;
40807;SDS011;26523;52.504;13.498;2022-12-05T15:37:16;37.60;;;11.75;;
40807;SDS011;26523;52.504;13.498;2022-12-05T15:39:59;39.08;;;13.38;;
40807;SDS011;26523;52.504;13.498;2022-12-05T15:42:41;43.25;;;12.10;;
40807;SDS011;26523;52.504;13.498;2022-12-05T15:47:44;44.85;;;12.60;;
40807;SDS011;26523;52.504;13.498;2022-12-05T15:52:50;47.80;;;12.82;;
40807;SDS011;26523;52.504;13.498;2022-12-05T15:55:26;42.20;;;12.00;;
40807;SDS011;26523;52.504;13.498;2022-12-05T15:58:02;49.15;;;14.32;;
40807;SDS011;26523;52.504;13.498;2022-12-05T16:00:49;49.70;;;14.10;;
40807;SDS011;26523;52.504;13.498;2022-12-05T16:03:35;41.95;;;13.57;;
40807;SDS011;26523;52.504;13.498;2022-12-05T16:08:53;42.28;;;11.02;;
40807;SDS011;26523;52.504;13.498;2022-12-05T16:11:21;39.38;;;12.32;;
40807;SDS011;26523;52.504;13.498;2022-12-05T16:13:48;40.42;;;12.52;;
40807;SDS011;26523;52.504;13.498;2022-12-05T16:16:19;38.65;;;12.05;;
40807;SDS011;26523;52.504;13.498;2022-12-05T16:18:52;41.75;;;13.30;;
40807;SDS011;26523;52.504;13.498;2022-12-05T16:21:26;45.33;;;12.35;;
40807;SDS011;26523;52.504;13.498;2022-12-05T16:26:42;44.30;;;11.98;;
40807;SDS011;26523;52.504;13.498;2022-12-05T16:29:27;31.90;;;11.82;;
40807;SDS011;26523;52.504;13.498;2022-12-05T16:31:55;48.92;;;14.10;;
40807;SDS011;26523;52.504;13.498;2022-12-05T16:34:23;35.15;;;12.88;;
40807;SDS011;26523;52.504;13.498;2022-12-05T16:36:50;47.17;;;14.70;;
40807;SDS011;26523;52.504;13.498;2022-12-05T16:39:18;40.05;;;13.60;;
40807;SDS011;26523;52.504;13.498;2022-12-05T16:41:45;41.00;;;12.95;;
40807;SDS011;26523;52.504;13.498;2022-12-05T16:46:50;45.08;;;13.88;;
40807;SDS011;26523;52.504;13.498;2022-12-05T16:49:21;48.05;;;13.45;;
40807;SDS011;26523;52.504;13.498;2022-12-05T16:51:58;40.75;;;13.02;;
40807;SDS011;26523;52.504;13.498;2022-12-05T16:54:24;53.35;;;13.05;;
40807;SDS011;26523;52.504;13.498;2022-12-05T16:56:49;46.70;;;13.93;;
40807;SDS011;26523;52.504;13.498;2022-12-05T16:59:19;43.05;;;12.85;;
40807;SDS011;26523;52.504;13.498;2022-12-05T17:01:53;44.20;;;12.98;;
40807;SDS011;26523;52.504;13.498;2022-12-05T17:04:18;45.63;;;13.60;;
40807;SDS011;26523;52.504;13.498;2022-12-05T17:06:44;40.58;;;12.05;;
40807;SDS011;26523;52.504;13.498;2022-12-05T17:09:10;41.47;;;13.40;;
40807;SDS011;26523;52.504;13.498;2022-12-05T17:11:36;35.95;;;11.32;;
40807;SDS011;26523;52.504;13.498;2022-12-05T17:14:05;41.22;;;12.88;;
40807;SDS011;26523;52.504;13.498;2022-12-05T17:16:33;41.10;;;12.90;;
40807;SDS011;26523;52.504;13.498;2022-12-05T17:18:59;47.75;;;13.07;;
40807;SDS011;26523;52.504;13.498;2022-12-05T17:21:25;56.28;;;13.55;;
40807;SDS011;26523;52.504;13.498;2022-12-05T17:23:55;44.53;;;13.93;;
40807;SDS011;26523;52.504;13.498;2022-12-05T17:26:21;42.08;;;13.02;;
40807;SDS011;26523;52.504;13.498;2022-12-05T17:28:47;52.95;;;14.35;;
40807;SDS011;26523;52.504;13.498;2022-12-05T17:31:16;48.80;;;12.27;;
40807;SDS011;26523;52.504;13.498;2022-12-05T17:33:44;39.80;;;13.60;;
40807;SDS011;26523;52.504;13.498;2022-12-05T17:36:10;37.97;;;13.32;;